Victory — WDB9496 — position and weather

sailwx.info

Track history (hours):
 
Tides and Currents Weather Stations Pressure Air Temp Water Temp Dewpoint Dewpoint Depression Visibility Wind Speed Wind Dir Waves Ship Positions

Victory

Owner: XENIOS, GEORGE, WILMINGTON, CA. More information available from US FCC via Universal Licensing System and Coast Guard Vessel Documentation Center.

Last reported at 2017-Nov-18 22:27 UTC. Time now 2017-Nov-19 08:20 UTC.
Position N 33°40' W 118°16'.

Type: Passenger vessel. MMSI: 366977270.

Date/timePositionNaut miles runAvg speedWind from/ knotsBaromVisibWave heightAir tempDewpointWater temp
2017-Nov-18 22:27N 33°40' W 118°16'0 0.9
2017-Nov-18 21:59N 33°40' W 118°15'1 0.0
2017-Nov-16 23:26N 33°40' W 118°17'0 0.2
2017-Nov-16 23:00N 33°40' W 118°17'1 2.4
2017-Nov-16 22:31N 33°39' W 118°16'0 0.7
2017-Nov-16 21:58N 33°39' W 118°16'0 0.0
2017-Nov-16 21:29N 33°39' W 118°16'1 1.6
2017-Nov-16 20:58N 33°38' W 118°15'4 8.6
2017-Nov-16 20:30N 33°36' W 118°11'2 3.1
2017-Nov-16 20:00N 33°35' W 118°10'0 0.6
2017-Nov-16 19:30N 33°35' W 118°09'1 1.5
2017-Nov-16 18:51N 33°35' W 118°09'1 0.3
2017-Nov-16 17:07N 33°34' W 118°08'0 0.8
2017-Nov-16 16:51N 33°34' W 118°08'13 5.4
2017-Nov-16 14:30N 33°46' W 118°13'4 0.2
2017-Nov-15 23:48N 33°42' W 118°15'4 1.4
2017-Nov-15 20:52N 33°38' W 118°14'1 1.4
2017-Nov-15 20:28N 33°38' W 118°15'2 2.4
2017-Nov-15 19:44N 33°37' W 118°16'0 0.3
2017-Nov-15 18:34N 33°37' W 118°16'0 0.0
2017-Nov-15 18:30N 33°37' W 118°16'1 2.3
2017-Nov-15 17:58N 33°36' W 118°16'0 0.0
2017-Nov-15 17:30N 33°36' W 118°16'0 0.1
2017-Nov-15 17:00N 33°36' W 118°16'4 0.2
2017-Nov-14 20:59N 33°38' W 118°12'0 0.3
2017-Nov-14 20:30N 33°38' W 118°12'2 4.1
2017-Nov-14 19:58N 33°36' W 118°11'0 0.7
2017-Nov-14 19:28N 33°36' W 118°11'1 0.6
2017-Nov-14 17:29N 33°35' W 118°12'3 5.1
2017-Nov-14 16:53N 33°36' W 118°16'0 0.5
2017-Nov-14 16:24N 33°36' W 118°16'1 2.8
2017-Nov-14 15:58N 33°37' W 118°17'9 6.0
2017-Nov-14 14:26N 33°46' W 118°13'8 0.2
2017-Nov-12 23:08N 33°38' W 118°12'1 0.9
2017-Nov-12 22:16N 33°37' W 118°12'1 2.3
2017-Nov-12 21:44N 33°36' W 118°11'1 3.8
2017-Nov-12 21:30N 33°36' W 118°10'0 0.0
2017-Nov-12 20:59N 33°36' W 118°10'2 3.1
2017-Nov-12 20:29N 33°35' W 118°09'1 0.2
2017-Nov-12 18:13N 33°34' W 118°08'0 0.7
2017-Nov-12 17:43N 33°34' W 118°08'0 0.1
2017-Nov-12 17:28N 33°34' W 118°08'8 0.5
2017-Nov-11 23:54N 33°40' W 118°14'4 0.1
2017-Nov-10 16:53N 33°36' W 118°16'  
Track history (hours):
 
Tides and Currents Weather Stations Pressure Air Temp Water Temp Dewpoint Dewpoint Depression Visibility Wind Speed Wind Dir Waves Ship Positions

Victory

Owner: XENIOS, GEORGE, WILMINGTON, CA. More information available from US FCC via Universal Licensing System and Coast Guard Vessel Documentation Center.

Last reported at 2017-Nov-18 22:27 UTC. Time now 2017-Nov-19 08:20 UTC.
Position N 33°40' W 118°16'.

Type: Passenger vessel. MMSI: 366977270.

Date/timePositionNaut miles runAvg speedWind from/ knotsBaromVisibWave heightAir tempDewpointWater temp
2017-Nov-18 22:27N 33°40' W 118°16'0 0.9
2017-Nov-18 21:59N 33°40' W 118°15'1 0.0
2017-Nov-16 23:26N 33°40' W 118°17'0 0.2
2017-Nov-16 23:00N 33°40' W 118°17'1 2.4
2017-Nov-16 22:31N 33°39' W 118°16'0 0.7
2017-Nov-16 21:58N 33°39' W 118°16'0 0.0
2017-Nov-16 21:29N 33°39' W 118°16'1 1.6
2017-Nov-16 20:58N 33°38' W 118°15'4 8.6
2017-Nov-16 20:30N 33°36' W 118°11'2 3.1
2017-Nov-16 20:00N 33°35' W 118°10'0 0.6
2017-Nov-16 19:30N 33°35' W 118°09'1 1.5
2017-Nov-16 18:51N 33°35' W 118°09'1 0.3
2017-Nov-16 17:07N 33°34' W 118°08'0 0.8
2017-Nov-16 16:51N 33°34' W 118°08'13 5.4
2017-Nov-16 14:30N 33°46' W 118°13'4 0.2
2017-Nov-15 23:48N 33°42' W 118°15'4 1.4
2017-Nov-15 20:52N 33°38' W 118°14'1 1.4
2017-Nov-15 20:28N 33°38' W 118°15'2 2.4
2017-Nov-15 19:44N 33°37' W 118°16'0 0.3
2017-Nov-15 18:34N 33°37' W 118°16'0 0.0
2017-Nov-15 18:30N 33°37' W 118°16'1 2.3
2017-Nov-15 17:58N 33°36' W 118°16'0 0.0
2017-Nov-15 17:30N 33°36' W 118°16'0 0.1
2017-Nov-15 17:00N 33°36' W 118°16'4 0.2
2017-Nov-14 20:59N 33°38' W 118°12'0 0.3
2017-Nov-14 20:30N 33°38' W 118°12'2 4.1
2017-Nov-14 19:58N 33°36' W 118°11'0 0.7
2017-Nov-14 19:28N 33°36' W 118°11'1 0.6
2017-Nov-14 17:29N 33°35' W 118°12'3 5.1
2017-Nov-14 16:53N 33°36' W 118°16'0 0.5
2017-Nov-14 16:24N 33°36' W 118°16'1 2.8
2017-Nov-14 15:58N 33°37' W 118°17'9 6.0
2017-Nov-14 14:26N 33°46' W 118°13'8 0.2
2017-Nov-12 23:08N 33°38' W 118°12'1 0.9
2017-Nov-12 22:16N 33°37' W 118°12'1 2.3
2017-Nov-12 21:44N 33°36' W 118°11'1 3.8
2017-Nov-12 21:30N 33°36' W 118°10'0 0.0
2017-Nov-12 20:59N 33°36' W 118°10'2 3.1
2017-Nov-12 20:29N 33°35' W 118°09'1 0.2
2017-Nov-12 18:13N 33°34' W 118°08'0 0.7
2017-Nov-12 17:43N 33°34' W 118°08'0 0.1
2017-Nov-12 17:28N 33°34' W 118°08'8 0.5
2017-Nov-11 23:54N 33°40' W 118°14'4 0.1
2017-Nov-10 16:53N 33°36' W 118°16'  

Dump ship's entire track history